Time;durP1;ratioP1;P1;durP2;ratioP2;P2;SDS_P1;SDS_P2;PMS_P1;PMS_P2;Temp;Humidity;BMP_temperature;BMP_pressure;BME280_temperature;BME280_humidity;BME280_pressure;Samples;Min_cycle;Max_cycle;Signal;HPM_P1;HPM_P2
2022/11/05 00:18:25;;;;;;;21.25;13.13;;;11.00;99.90;;;;;;10454942;28;20041;-79
2022/11/05 00:28:47;;;;;;;12.57;8.13;;;10.80;99.90;;;;;;10440814;28;20041;-81
2022/11/05 00:33:47;;;;;;;9.63;6.15;;;10.70;99.90;;;;;;10453968;28;20047;-78
2022/11/05 00:38:48;;;;;;;10.25;6.60;;;10.60;99.90;;;;;;10447603;28;20045;-81
2022/11/05 00:54:26;;;;;;;20.73;11.82;;;10.20;99.90;;;;;;10451777;28;20052;-79
2022/11/05 00:59:27;;;;;;;32.22;19.92;;;10.10;99.90;;;;;;10449307;28;20716;-81
2022/11/05 01:04:28;;;;;;;22.45;14.70;;;10.10;99.90;;;;;;10440602;28;20036;-78
2022/11/05 01:09:28;;;;;;;15.50;10.47;;;10.00;99.90;;;;;;10442573;28;20060;-78
2022/11/05 01:14:29;;;;;;;16.33;12.27;;;9.90;99.90;;;;;;10455738;28;20132;-78
2022/11/05 01:19:30;;;;;;;20.57;14.10;;;9.80;99.90;;;;;;10453972;28;20083;-78
2022/11/05 01:24:31;;;;;;;22.43;15.80;;;9.70;99.90;;;;;;10445299;28;20029;-81
2022/11/05 01:29:31;;;;;;;26.97;18.53;;;9.60;99.90;;;;;;10444289;28;20033;-80
2022/11/05 01:34:32;;;;;;;29.10;19.93;;;9.60;99.90;;;;;;10446889;28;20043;-80
2022/11/05 01:39:32;;;;;;;30.27;21.07;;;9.60;99.90;;;;;;10458316;28;20110;-79
2022/11/05 01:44:54;;;;;;;27.90;19.10;;;9.50;99.90;;;;;;10438984;28;20108;-78
2022/11/05 01:49:59;;;;;;;23.37;16.77;;;9.50;99.90;;;;;;10440392;28;20053;-81
2022/11/05 01:55:01;;;;;;;31.40;21.37;;;9.40;99.90;;;;;;10447265;28;20033;-81
2022/11/05 02:00:03;;;;;;;26.43;19.30;;;9.40;99.90;;;;;;10439096;28;20091;-78
2022/11/05 02:05:05;;;;;;;34.77;24.53;;;9.30;99.90;;;;;;10454202;28;20114;-81
2022/11/05 02:10:09;;;;;;;35.87;25.30;;;9.40;99.90;;;;;;10446061;28;20457;-78
2022/11/05 02:15:11;;;;;;;26.60;18.43;;;9.30;99.90;;;;;;10455219;28;20044;-78
2022/11/05 02:20:30;;;;;;;20.47;14.77;;;9.30;99.90;;;;;;10450599;28;20106;-77
2022/11/05 02:26:07;;;;;;;17.23;13.27;;;9.20;99.90;;;;;;10458292;28;20553;-78
2022/11/05 02:31:13;;;;;;;20.07;14.83;;;9.20;99.90;;;;;;10429166;28;20033;-81
2022/11/05 02:36:36;;;;;;;16.45;11.70;;;9.20;99.90;;;;;;10457988;28;20105;-80
2022/11/05 02:42:05;;;;;;;17.73;12.70;;;9.20;99.90;;;;;;10440689;28;20083;-78
2022/11/05 02:47:27;;;;;;;15.17;10.83;;;9.10;99.90;;;;;;10461863;28;20067;-82
2022/11/05 02:52:52;;;;;;;16.73;12.07;;;9.10;99.90;;;;;;10452961;28;20039;-78
2022/11/05 02:57:53;;;;;;;13.57;10.13;;;9.10;99.90;;;;;;10403300;28;20056;-82
2022/11/05 03:02:54;;;;;;;15.07;10.60;;;9.10;99.90;;;;;;10448258;28;20541;-80
2022/11/05 03:08:04;;;;;;;16.50;11.03;;;9.10;99.90;;;;;;10447909;28;20035;-78
2022/11/05 03:13:26;;;;;;;15.13;10.50;;;9.20;99.90;;;;;;10447907;28;20287;-79
2022/11/05 03:18:41;;;;;;;20.70;14.07;;;9.20;99.90;;;;;;10429923;28;20615;-83
2022/11/05 03:24:16;;;;;;;21.50;14.50;;;9.20;99.90;;;;;;10449606;28;20041;-79
2022/11/05 03:29:26;;;;;;;20.63;13.87;;;9.10;99.90;;;;;;10442935;28;20028;-81
2022/11/05 03:34:52;;;;;;;22.70;15.30;;;9.20;99.90;;;;;;10442536;28;20037;-78
2022/11/05 03:39:57;;;;;;;23.35;14.63;;;9.20;99.90;;;;;;10463075;28;20405;-82
2022/11/05 03:45:01;;;;;;;21.05;14.38;;;9.30;99.90;;;;;;10443774;28;20388;-78
2022/11/05 03:50:31;;;;;;;23.83;16.53;;;9.30;99.90;;;;;;10437735;28;20694;-79
2022/11/05 03:55:42;;;;;;;25.00;15.93;;;9.30;99.90;;;;;;10448717;28;20415;-81
2022/11/05 04:00:42;;;;;;;24.27;16.27;;;9.30;99.90;;;;;;10466901;28;20044;-80
2022/11/05 04:05:43;;;;;;;22.90;15.07;;;9.30;99.90;;;;;;10443112;28;20051;-78
2022/11/05 04:26:44;;;;;;;26.33;16.13;;;9.20;99.90;;;;;;10453864;28;20435;-78
2022/11/05 04:31:44;;;;;;;29.40;17.50;;;9.10;99.90;;;;;;10449570;28;20037;-78
2022/11/05 04:36:45;;;;;;;29.67;18.90;;;9.10;99.90;;;;;;10441331;28;20408;-77
2022/11/05 04:41:47;;;;;;;36.07;20.63;;;9.10;99.90;;;;;;10448845;28;20029;-78
2022/11/05 04:46:48;;;;;;;39.63;22.70;;;9.00;99.90;;;;;;10454179;28;20028;-79
2022/11/05 04:51:48;;;;;;;39.57;22.70;;;9.00;99.90;;;;;;10453724;28;20036;-81
2022/11/05 04:56:49;;;;;;;41.03;22.83;;;9.10;99.90;;;;;;10483193;28;20036;-80
2022/11/05 05:01:52;;;;;;;48.67;25.37;;;9.10;99.90;;;;;;10467540;28;20393;-83
2022/11/05 05:06:52;;;;;;;38.63;20.33;;;9.10;99.90;;;;;;10457259;28;20108;-78
2022/11/05 05:11:53;;;;;;;28.97;15.30;;;9.00;99.90;;;;;;10453161;28;20047;-78
2022/11/05 05:16:54;;;;;;;26.43;14.83;;;9.00;99.90;;;;;;10447795;28;20079;-78
2022/11/05 05:21:54;;;;;;;27.33;15.03;;;9.00;99.90;;;;;;10441541;28;20032;-78
2022/11/05 05:26:55;;;;;;;30.17;14.30;;;9.00;99.90;;;;;;10461434;28;20408;-78
2022/11/05 05:31:55;;;;;;;44.93;28.43;;;9.00;99.90;;;;;;10466415;28;21455;-79
2022/11/05 05:36:56;;;;;;;41.60;25.37;;;8.90;99.90;;;;;;10446436;28;20049;-79
2022/11/05 05:41:56;;;;;;;34.87;16.87;;;9.00;99.90;;;;;;10473206;28;20443;-78
2022/11/05 05:46:57;;;;;;;36.70;20.90;;;8.90;99.90;;;;;;10459779;28;20029;-79
2022/11/05 05:51:57;;;;;;;34.87;22.07;;;8.90;99.90;;;;;;10467924;28;20048;-78
2022/11/05 05:56:58;;;;;;;32.57;18.30;;;8.90;99.90;;;;;;10447886;28;20026;-78
2022/11/05 06:01:59;;;;;;;32.37;17.87;;;8.90;99.90;;;;;;10453941;28;20025;-82
2022/11/05 06:07:00;;;;;;;41.03;23.33;;;8.90;99.90;;;;;;10441444;28;20380;-79
2022/11/05 06:12:00;;;;;;;37.13;22.03;;;8.80;99.90;;;;;;10458329;28;20037;-83
2022/11/05 06:17:01;;;;;;;37.63;22.27;;;8.80;99.90;;;;;;10448103;28;20481;-82
2022/11/05 06:22:02;;;;;;;39.40;19.27;;;8.90;99.90;;;;;;10427081;28;20037;-79
2022/11/05 06:27:02;;;;;;;38.23;23.97;;;8.90;99.90;;;;;;10456285;28;20087;-79
2022/11/05 06:32:03;;;;;;;40.10;24.70;;;8.90;99.90;;;;;;10440767;28;20576;-78
2022/11/05 06:37:04;;;;;;;34.07;18.80;;;8.90;99.90;;;;;;10446714;28;20401;-77
2022/11/05 06:42:04;;;;;;;36.47;20.23;;;8.90;99.90;;;;;;10459115;28;20037;-77
2022/11/05 06:47:05;;;;;;;36.93;23.77;;;9.00;99.90;;;;;;10456897;28;20032;-78
2022/11/05 06:52:06;;;;;;;42.10;25.00;;;8.90;99.90;;;;;;10448783;28;20029;-79
2022/11/05 06:57:10;;;;;;;40.30;23.87;;;9.00;99.90;;;;;;10441752;28;20496;-81
2022/11/05 07:02:12;;;;;;;37.90;22.03;;;9.00;99.90;;;;;;10449877;28;20047;-78
2022/11/05 07:07:12;;;;;;;71.73;33.60;;;9.00;99.90;;;;;;10436885;28;20029;-78
2022/11/05 07:12:13;;;;;;;56.33;29.03;;;9.00;99.90;;;;;;10449843;28;20094;-78
2022/11/05 07:17:16;;;;;;;42.17;23.73;;;9.10;99.90;;;;;;10450309;28;20056;-78
2022/11/05 07:22:17;;;;;;;33.97;20.03;;;9.10;99.90;;;;;;10447301;28;20052;-78
2022/11/05 07:27:17;;;;;;;38.27;22.47;;;9.10;99.90;;;;;;10462374;28;20515;-79
2022/11/05 07:32:18;;;;;;;38.60;20.80;;;9.10;99.90;;;;;;10455270;28;20041;-77
2022/11/05 07:37:18;;;;;;;44.83;24.17;;;9.10;99.90;;;;;;10448013;28;20156;-78
2022/11/05 07:42:19;;;;;;;37.47;20.90;;;9.20;99.90;;;;;;10442587;28;20121;-78
2022/11/05 07:47:19;;;;;;;38.33;21.10;;;9.20;99.90;;;;;;10448207;28;20028;-78
2022/11/05 07:52:20;;;;;;;39.77;21.17;;;9.20;99.90;;;;;;10461947;28;20044;-77
2022/11/05 07:57:20;;;;;;;34.30;18.87;;;9.20;99.90;;;;;;10427776;28;20534;-79
2022/11/05 08:02:21;;;;;;;32.57;17.30;;;9.20;99.90;;;;;;10457395;28;20037;-78
2022/11/05 08:07:21;;;;;;;38.73;18.20;;;9.20;99.90;;;;;;10453407;28;20111;-79
2022/11/05 08:12:22;;;;;;;39.80;20.40;;;9.20;99.90;;;;;;10435664;28;20139;-80
2022/11/05 08:17:23;;;;;;;39.07;20.10;;;9.30;99.90;;;;;;10438831;28;20040;-78
2022/11/05 08:22:23;;;;;;;36.07;20.90;;;9.20;99.90;;;;;;10446975;28;20036;-78
2022/11/05 08:27:24;;;;;;;31.43;15.93;;;9.20;99.90;;;;;;10442167;28;20392;-78
2022/11/05 08:32:24;;;;;;;33.07;15.83;;;9.20;99.90;;;;;;10437442;28;20158;-78
2022/11/05 08:37:25;;;;;;;57.07;27.13;;;9.20;99.90;;;;;;10448584;28;20504;-78
2022/11/05 08:42:25;;;;;;;42.27;23.30;;;9.20;99.90;;;;;;10451536;28;20037;-78
2022/11/05 08:47:26;;;;;;;38.53;21.00;;;9.30;99.90;;;;;;10437719;28;20103;-79
2022/11/05 08:52:27;;;;;;;35.80;20.37;;;9.30;99.90;;;;;;10453556;28;20041;-80
2022/11/05 08:57:27;;;;;;;33.77;17.50;;;9.30;99.90;;;;;;10434591;28;20029;-79
2022/11/05 09:02:28;;;;;;;42.77;20.30;;;9.30;99.90;;;;;;10450760;28;20423;-78
2022/11/05 09:07:28;;;;;;;38.10;18.23;;;9.30;99.90;;;;;;10457410;28;20040;-78
2022/11/05 09:12:29;;;;;;;30.47;15.30;;;9.30;99.90;;;;;;10449185;28;20033;-80
2022/11/05 09:17:29;;;;;;;40.83;20.17;;;9.30;99.90;;;;;;10461273;28;20044;-78
2022/11/05 09:22:30;;;;;;;28.20;15.47;;;9.30;99.90;;;;;;10458481;28;20072;-77
2022/11/05 09:27:31;;;;;;;26.63;14.23;;;9.40;99.90;;;;;;10456463;28;20066;-78
2022/11/05 09:32:31;;;;;;;26.30;13.93;;;9.40;99.90;;;;;;10450476;28;20052;-78
2022/11/05 09:37:32;;;;;;;22.60;11.18;;;9.60;99.90;;;;;;10444996;22;20061;-77
2022/11/05 09:42:40;;;;;;;19.63;10.63;;;9.60;99.90;;;;;;10408747;28;20435;-78
2022/11/05 09:47:46;;;;;;;22.87;12.80;;;9.60;99.90;;;;;;10409752;28;20037;-80
2022/11/05 09:52:46;;;;;;;;;;;9.70;99.90;;;;;;10406527;28;20041;-79
2022/11/05 09:57:55;;;;;;;24.25;14.20;;;9.70;99.90;;;;;;10405220;28;19920;-80
2022/11/05 10:03:10;;;;;;;15.47;9.67;;;9.80;99.90;;;;;;10405968;28;20064;-79
2022/11/05 10:08:23;;;;;;;13.20;7.97;;;9.80;99.90;;;;;;10408961;28;20021;-79
2022/11/05 10:13:44;;;;;;;11.75;7.88;;;9.90;99.90;;;;;;10404529;28;20148;-78
2022/11/05 10:18:51;;;;;;;17.93;11.67;;;10.00;99.90;;;;;;10391502;28;20117;-79
2022/11/05 10:23:52;;;;;;;30.43;18.00;;;9.90;99.90;;;;;;10409093;28;20112;-77
2022/11/05 10:28:53;;;;;;;23.37;13.03;;;9.80;99.90;;;;;;10410010;28;20029;-79
2022/11/05 10:34:00;;;;;;;15.13;9.57;;;9.80;99.90;;;;;;10408813;28;20044;-77
2022/11/05 10:39:11;;;;;;;10.60;6.70;;;9.80;99.90;;;;;;10408945;28;20062;-78
2022/11/05 10:44:33;;;;;;;7.57;4.80;;;9.70;99.90;;;;;;10409254;28;20060;-77
2022/11/05 10:49:59;;;;;;;14.90;8.77;;;9.70;99.90;;;;;;10409370;28;20032;-78
2022/11/05 10:55:09;;;;;;;8.88;6.00;;;9.60;99.90;;;;;;10403610;28;20107;-77
2022/11/05 11:00:15;;;;;;;19.23;12.40;;;9.70;99.90;;;;;;10390634;28;20065;-78
2022/11/05 11:05:35;;;;;;;10.63;7.10;;;9.70;99.90;;;;;;10406045;28;20096;-78
2022/11/05 11:10:46;;;;;;;11.87;8.03;;;9.70;99.90;;;;;;10407800;28;20048;-78
2022/11/05 11:15:49;;;;;;;11.55;8.13;;;9.80;99.90;;;;;;10406215;28;20060;-79
2022/11/05 11:20:50;;;;;;;30.33;25.47;;;9.70;99.90;;;;;;10407910;28;20021;-79
2022/11/05 11:25:52;;;;;;;10.10;6.43;;;9.80;99.90;;;;;;10407427;28;20054;-79
2022/11/05 11:31:19;;;;;;;8.93;5.47;;;9.80;99.90;;;;;;10407541;28;20663;-78
2022/11/05 11:36:25;;;;;;;9.87;6.07;;;9.80;99.90;;;;;;10403130;28;20089;-78
2022/11/05 11:41:31;;;;;;;7.87;5.17;;;9.70;99.90;;;;;;10397401;28;20060;-79
2022/11/05 11:46:34;;;;;;;10.38;6.38;;;9.70;99.90;;;;;;10406796;28;20568;-78
2022/11/05 11:51:43;;;;;;;9.20;5.40;;;9.60;99.90;;;;;;10405782;28;20026;-78
2022/11/05 11:56:46;;;;;;;10.90;5.90;;;9.60;99.90;;;;;;10408209;28;20033;-77
2022/11/05 12:02:17;;;;;;;13.30;6.23;;;9.50;99.90;;;;;;10407029;28;20033;-80
2022/11/05 12:07:42;;;;;;;10.43;5.60;;;9.50;99.90;;;;;;10490777;22;20063;-80
2022/11/05 12:13:09;;;;;;;9.47;5.50;;;9.50;99.90;;;;;;10470016;28;20068;-79
2022/11/05 12:18:18;;;;;;;8.63;5.63;;;9.60;99.90;;;;;;10487748;28;20047;-80
2022/11/05 12:23:43;;;;;;;9.07;5.87;;;9.60;99.90;;;;;;10487578;28;20467;-78
2022/11/05 12:28:54;;;;;;;11.70;6.67;;;9.60;99.90;;;;;;10486598;28;20040;-78
2022/11/05 12:34:06;;;;;;;11.00;6.47;;;9.70;99.90;;;;;;10486473;28;20047;-79
2022/11/05 12:39:07;;;;;;;9.77;6.33;;;9.70;99.90;;;;;;10486970;28;20365;-78
2022/11/05 12:44:07;;;;;;;13.30;7.43;;;9.70;99.90;;;;;;10487879;28;20036;-78
2022/11/05 12:49:17;;;;;;;10.20;6.63;;;9.70;99.90;;;;;;10467515;28;20040;-79
2022/11/05 12:54:58;;;;;;;10.03;6.80;;;9.60;99.90;;;;;;10486476;28;20400;-78
2022/11/05 13:00:29;;;;;;;11.17;6.50;;;9.60;99.90;;;;;;10486557;28;20044;-79
2022/11/05 13:05:39;;;;;;;11.10;6.97;;;9.70;99.90;;;;;;10465524;28;20063;-77
2022/11/05 13:10:49;;;;;;;9.93;5.68;;;9.70;99.90;;;;;;10486116;28;20547;-79
2022/11/05 13:15:55;;;;;;;11.00;6.73;;;9.70;99.90;;;;;;10485916;28;20040;-77
2022/11/05 13:20:57;;;;;;;;;;;9.80;99.90;;;;;;10487973;28;20395;-78
2022/11/05 13:26:05;;;;;;;11.90;7.73;;;9.80;99.90;;;;;;10486999;28;20287;-80
2022/11/05 13:31:12;;;;;;;11.37;7.83;;;9.70;99.90;;;;;;10486676;28;20387;-79
2022/11/05 13:42:27;;;;;;;17.35;8.40;;;9.60;99.90;;;;;;10487443;28;20033;-79
2022/11/05 13:48:16;;;;;;;13.57;8.17;;;9.60;99.90;;;;;;10486374;28;20063;-78
2022/11/05 13:53:44;;;;;;;13.43;8.43;;;9.50;99.90;;;;;;10469505;28;20333;-78
2022/11/05 13:59:22;;;;;;;14.27;8.33;;;9.50;99.90;;;;;;10489855;28;20060;-78
2022/11/05 14:04:29;;;;;;;18.60;9.77;;;9.40;99.90;;;;;;10479687;28;20052;-77
2022/11/05 14:09:34;;;;;;;15.37;9.23;;;9.40;99.90;;;;;;10492856;28;20042;-77
2022/11/05 14:14:44;;;;;;;16.70;9.90;;;9.40;99.90;;;;;;10491298;28;20479;-78
2022/11/05 14:20:11;;;;;;;15.33;9.23;;;9.30;99.90;;;;;;10490439;28;20042;-78
2022/11/05 14:25:17;;;;;;;15.27;9.80;;;9.40;99.90;;;;;;10470846;28;20715;-77
2022/11/05 14:30:38;;;;;;;13.87;8.50;;;9.30;99.90;;;;;;10492170;28;20113;-78
2022/11/05 14:35:38;;;;;;;13.97;8.33;;;9.40;99.90;;;;;;10487223;28;20044;-78
2022/11/05 14:40:42;;;;;;;16.53;8.33;;;9.30;99.90;;;;;;10488211;28;20040;-79
2022/11/05 14:45:55;;;;;;;15.43;8.37;;;9.40;99.90;;;;;;10491245;28;20025;-78
2022/11/05 14:50:56;;;;;;;15.70;8.83;;;9.30;99.90;;;;;;10491134;28;20047;-78
2022/11/05 14:56:17;;;;;;;14.20;8.90;;;9.30;99.90;;;;;;10491511;28;20395;-80
2022/11/05 15:01:33;;;;;;;13.20;8.33;;;9.30;99.90;;;;;;10491562;28;20039;-80
2022/11/05 15:06:35;;;;;;;14.63;9.13;;;9.30;99.90;;;;;;10490694;28;20057;-80
2022/11/05 15:11:44;;;;;;;17.57;8.57;;;9.30;99.90;;;;;;10491096;28;20033;-80
2022/11/05 15:16:52;;;;;;;16.93;9.20;;;9.30;99.90;;;;;;10489397;28;20028;-78
2022/11/05 15:21:56;;;;;;;14.67;8.87;;;9.30;99.90;;;;;;10490488;28;20028;-79
2022/11/05 15:27:03;;;;;;;14.90;9.00;;;9.20;99.90;;;;;;10489376;28;20509;-78
2022/11/05 15:32:04;;;;;;;16.10;9.67;;;9.30;99.90;;;;;;10490178;28;20043;-79
2022/11/05 15:37:11;;;;;;;12.73;7.07;;;9.30;99.90;;;;;;10489211;28;20089;-78
2022/11/05 15:42:14;;;;;;;15.60;7.37;;;9.30;99.90;;;;;;10488590;28;20067;-80
2022/11/05 15:47:17;;;;;;;14.13;7.03;;;9.20;99.90;;;;;;10489857;28;20024;-78
2022/11/05 15:52:22;;;;;;;19.20;8.20;;;9.20;99.90;;;;;;10488735;28;20032;-80
2022/11/05 15:57:27;;;;;;;16.20;8.48;;;9.20;99.90;;;;;;10487841;28;20025;-81
2022/11/05 16:02:33;;;;;;;14.20;7.70;;;9.20;99.90;;;;;;10487131;28;20039;-79
2022/11/05 16:07:34;;;;;;;15.85;8.05;;;9.20;99.90;;;;;;10488707;28;20049;-79
2022/11/05 16:12:36;;;;;;;16.47;8.07;;;9.20;99.90;;;;;;10488473;28;20036;-79
2022/11/05 16:17:36;;;;;;;15.80;8.90;;;9.20;99.90;;;;;;10482032;28;20031;-78
2022/11/05 16:22:44;;;;;;;19.07;8.73;;;9.20;99.90;;;;;;10484792;28;20032;-82
2022/11/05 16:27:45;;;;;;;17.47;8.30;;;9.10;99.90;;;;;;10487005;28;20028;-82
2022/11/05 16:32:46;;;;;;;19.23;9.23;;;9.10;99.90;;;;;;10495542;22;20116;-79
2022/11/05 16:37:48;;;;;;;21.03;9.27;;;9.10;99.90;;;;;;10446073;28;20036;-79
2022/11/05 16:42:51;;;;;;;15.40;8.10;;;9.10;99.90;;;;;;10445153;28;20495;-82
2022/11/05 16:47:51;;;;;;;22.30;11.20;;;9.00;99.90;;;;;;10444038;28;20056;-78
2022/11/05 16:52:52;;;;;;;24.37;12.63;;;9.00;99.90;;;;;;10425324;28;20123;-78
2022/11/05 16:57:54;;;;;;;27.47;14.17;;;9.00;99.90;;;;;;10445824;28;20029;-83
2022/11/05 17:02:54;;;;;;;29.43;15.17;;;9.00;99.90;;;;;;10446573;28;20067;-78
2022/11/05 17:07:55;;;;;;;35.50;17.20;;;9.00;99.90;;;;;;10445799;28;20037;-79
2022/11/05 17:12:56;;;;;;;29.33;13.07;;;9.00;99.90;;;;;;10444775;28;20033;-79
2022/11/05 17:17:58;;;;;;;18.50;11.13;;;9.00;99.90;;;;;;10445452;28;20403;-79
2022/11/05 17:22:59;;;;;;;22.03;11.53;;;9.00;99.90;;;;;;10426948;28;20595;-81
2022/11/05 17:28:00;;;;;;;20.13;10.10;;;9.00;99.90;;;;;;10427002;28;20087;-81
2022/11/05 17:33:01;;;;;;;19.93;10.10;;;9.00;99.90;;;;;;10447495;28;20049;-80
2022/11/05 17:38:01;;;;;;;21.53;9.70;;;9.00;99.90;;;;;;10454214;28;20017;-81
2022/11/05 17:43:02;;;;;;;17.90;9.43;;;9.00;99.90;;;;;;10453162;28;20104;-80
2022/11/05 17:48:03;;;;;;;16.80;8.47;;;9.00;99.90;;;;;;10451564;28;20021;-77
2022/11/05 17:53:04;;;;;;;17.80;9.13;;;8.90;99.90;;;;;;10453565;28;20033;-80
2022/11/05 17:58:04;;;;;;;21.60;10.10;;;8.90;99.90;;;;;;10452885;28;20443;-78
2022/11/05 18:03:05;;;;;;;23.57;10.00;;;8.90;99.90;;;;;;10451498;28;20059;-77
2022/11/05 18:08:07;;;;;;;19.37;8.77;;;8.90;99.90;;;;;;10451626;28;20037;-77
2022/11/05 18:13:08;;;;;;;22.33;10.83;;;8.90;99.90;;;;;;10451127;28;20040;-77
2022/11/05 18:18:09;;;;;;;22.30;10.73;;;8.90;99.90;;;;;;10450179;28;20063;-77
2022/11/05 18:23:09;;;;;;;19.27;9.90;;;8.80;99.90;;;;;;10449200;28;20033;-77
2022/11/05 18:28:10;;;;;;;17.33;9.27;;;8.90;99.90;;;;;;10451792;28;20051;-77
2022/11/05 18:33:10;;;;;;;18.47;9.47;;;8.80;99.90;;;;;;10450406;28;20455;-77
2022/11/05 18:38:11;;;;;;;18.20;9.57;;;8.80;99.90;;;;;;10449857;28;20504;-76
2022/11/05 18:43:12;;;;;;;27.43;11.50;;;8.90;99.90;;;;;;10424563;28;20392;-77
2022/11/05 18:48:12;;;;;;;18.93;10.27;;;8.80;99.90;;;;;;10449133;28;20105;-78
2022/11/05 18:53:13;;;;;;;25.20;11.60;;;8.90;99.90;;;;;;10449283;28;20677;-78
2022/11/05 18:58:13;;;;;;;19.37;10.10;;;8.80;99.90;;;;;;10449904;28;20029;-78
2022/11/05 19:03:14;;;;;;;26.00;12.30;;;8.80;99.90;;;;;;10447730;28;20517;-77
2022/11/05 19:08:15;;;;;;;27.33;12.60;;;8.90;99.90;;;;;;10440765;28;20029;-81
2022/11/05 19:13:15;;;;;;;24.03;12.27;;;8.90;99.90;;;;;;10445062;28;20052;-77
2022/11/05 19:18:16;;;;;;;27.07;14.07;;;8.90;99.90;;;;;;10447778;28;20074;-79
2022/11/05 19:23:17;;;;;;;26.00;13.07;;;8.80;99.90;;;;;;10441175;28;20136;-78
2022/11/05 19:28:17;;;;;;;25.77;13.53;;;8.90;99.90;;;;;;10448965;28;20033;-78
2022/11/05 19:33:18;;;;;;;28.17;13.47;;;8.90;99.90;;;;;;10439367;28;20053;-82
2022/11/05 19:38:18;;;;;;;30.57;14.57;;;8.80;99.90;;;;;;10442560;28;20063;-78
2022/11/05 19:43:19;;;;;;;31.90;14.80;;;8.80;99.90;;;;;;10443649;28;20139;-78
2022/11/05 19:48:19;;;;;;;28.87;15.30;;;8.80;99.90;;;;;;10448062;28;20029;-78
2022/11/05 19:53:20;;;;;;;30.77;15.40;;;8.80;99.90;;;;;;10430160;28;20041;-77
2022/11/05 19:58:21;;;;;;;34.73;14.77;;;8.70;99.90;;;;;;10436289;28;20025;-78
2022/11/05 20:03:21;;;;;;;30.20;14.23;;;8.80;99.90;;;;;;10447593;28;20510;-77
2022/11/05 20:08:22;;;;;;;31.87;15.47;;;8.70;99.90;;;;;;10429676;28;20036;-79
2022/11/05 20:13:23;;;;;;;31.87;15.50;;;8.70;99.90;;;;;;10447764;28;20040;-78
2022/11/05 20:18:25;;;;;;;26.40;13.53;;;8.70;99.90;;;;;;10446907;28;20505;-78
2022/11/05 20:23:27;;;;;;;31.27;15.00;;;8.70;99.90;;;;;;10464295;22;20076;-80
2022/11/05 20:28:28;;;;;;;25.97;13.33;;;8.70;99.90;;;;;;10446459;28;20039;-77
2022/11/05 20:33:28;;;;;;;28.57;15.57;;;8.70;99.90;;;;;;10446664;28;20037;-77
2022/11/05 20:38:29;;;;;;;36.07;17.20;;;8.70;99.90;;;;;;10446622;28;20025;-77
2022/11/05 20:43:30;;;;;;;33.70;17.00;;;8.60;99.90;;;;;;10446637;28;20029;-79
2022/11/05 20:48:33;;;;;;;37.83;16.23;;;8.60;99.90;;;;;;10445734;28;20050;-77
2022/11/05 20:53:34;;;;;;;37.77;16.07;;;8.60;99.90;;;;;;10446260;28;20036;-79
2022/11/05 20:58:36;;;;;;;35.07;14.67;;;8.50;99.90;;;;;;10446421;28;20095;-77
2022/11/05 21:03:37;;;;;;;32.00;15.30;;;8.50;99.90;;;;;;10445437;28;20024;-78
2022/11/05 21:08:37;;;;;;;31.30;15.37;;;8.50;99.90;;;;;;10444752;28;20408;-77
2022/11/05 21:13:38;;;;;;;39.93;17.17;;;8.50;99.90;;;;;;10445316;28;20382;-79
2022/11/05 21:18:39;;;;;;;39.53;19.60;;;8.50;99.90;;;;;;10445109;28;20048;-79
2022/11/05 21:23:40;;;;;;;35.87;18.87;;;8.50;99.90;;;;;;10445800;28;20057;-80
2022/11/05 21:28:41;;;;;;;41.23;18.63;;;8.50;99.90;;;;;;10446007;28;20033;-78
2022/11/05 21:33:41;;;;;;;33.67;17.50;;;8.50;99.90;;;;;;10443695;28;20036;-77
2022/11/05 21:38:42;;;;;;;40.40;19.07;;;8.50;99.90;;;;;;10445034;28;20040;-77
2022/11/05 21:43:43;;;;;;;37.13;17.83;;;8.50;99.90;;;;;;10445407;28;20086;-77
2022/11/05 21:48:44;;;;;;;32.63;16.80;;;8.40;99.90;;;;;;10444548;28;20037;-77
2022/11/05 22:04:23;;;;;;;35.00;16.80;;;8.20;99.90;;;;;;10444179;28;20041;-77
2022/11/05 22:09:24;;;;;;;34.13;16.37;;;8.20;99.90;;;;;;10495449;22;20056;-78
2022/11/05 22:14:26;;;;;;;30.43;15.27;;;8.20;99.90;;;;;;10486682;28;20102;-82
2022/11/05 22:19:27;;;;;;;50.00;19.03;;;8.10;99.90;;;;;;10488256;28;20036;-77
2022/11/05 22:24:29;;;;;;;34.17;16.67;;;8.00;99.90;;;;;;10493266;28;20036;-79
2022/11/05 22:29:30;;;;;;;34.80;17.53;;;8.00;99.90;;;;;;10491426;28;20028;-77
2022/11/05 22:34:30;;;;;;;33.97;17.93;;;7.90;99.90;;;;;;10491685;28;20036;-77
2022/11/05 22:39:31;;;;;;;34.70;16.57;;;7.90;99.90;;;;;;10491394;28;20067;-77
2022/11/05 22:44:32;;;;;;;37.17;18.37;;;7.90;99.90;;;;;;10492000;28;20123;-81
2022/11/05 22:49:33;;;;;;;31.60;16.43;;;7.80;99.90;;;;;;10491549;28;20111;-80
2022/11/05 22:54:33;;;;;;;38.07;18.17;;;7.80;99.90;;;;;;10492244;28;20028;-77
2022/11/05 22:59:34;;;;;;;38.00;16.87;;;7.70;99.90;;;;;;10489962;28;20024;-77
2022/11/05 23:04:34;;;;;;;34.23;14.83;;;7.70;99.90;;;;;;10490346;28;20032;-77
2022/11/05 23:14:57;;;;;;;42.07;19.50;;;7.70;99.90;;;;;;10478147;28;20044;-82
2022/11/05 23:25:20;;;;;;;52.87;21.97;;;7.80;99.90;;;;;;10498510;22;20493;-78
2022/11/05 23:30:26;;;;;;;64.93;27.60;;;7.80;99.90;;;;;;10447540;28;20815;-77
2022/11/05 23:51:24;;;;;;;86.33;43.37;;;7.70;99.90;;;;;;10448170;28;20064;-80
2022/11/05 23:56:24;;;;;;;88.10;45.73;;;7.70;99.90;;;;;;10448669;28;20108;-77
